Time;durP1;ratioP1;P1;durP2;ratioP2;P2;SDS_P1;SDS_P2;PMS_P1;PMS_P2;Temp;Humidity;BMP_temperature;BMP_pressure;BME280_temperature;BME280_humidity;BME280_pressure;Samples;Min_cycle;Max_cycle;Signal;HPM_P1;HPM_P2
2023/05/02 00:01:39;;;;;;;21.45;15.77;;;7.70;99.90;;;;;;5043795;28;20095;-85
2023/05/02 00:04:29;;;;;;;21.58;16.70;;;7.60;99.90;;;;;;5040098;28;20049;-87
2023/05/02 00:07:16;;;;;;;21.20;15.93;;;7.60;99.90;;;;;;5033290;28;20077;-86
2023/05/02 00:10:04;;;;;;;25.42;18.10;;;7.60;99.90;;;;;;5038124;28;20187;-86
2023/05/02 00:12:52;;;;;;;24.60;17.33;;;7.60;99.90;;;;;;5025500;28;20037;-84
2023/05/02 00:15:40;;;;;;;21.35;16.17;;;7.60;99.90;;;;;;5039951;28;20152;-87
2023/05/02 00:18:29;;;;;;;21.33;17.20;;;7.50;99.90;;;;;;5038036;28;20045;-87
2023/05/02 00:21:16;;;;;;;25.95;17.23;;;7.40;99.90;;;;;;5036623;28;20104;-85
2023/05/02 00:24:04;;;;;;;21.45;16.67;;;7.40;99.90;;;;;;5042547;28;20456;-87
2023/05/02 00:26:51;;;;;;;22.08;17.00;;;7.30;99.90;;;;;;5029568;28;20199;-84
2023/05/02 00:29:39;;;;;;;22.13;17.80;;;7.40;99.90;;;;;;5032852;28;21710;-87
2023/05/02 00:32:29;;;;;;;23.20;17.60;;;7.40;99.90;;;;;;5039142;28;20128;-85
2023/05/02 00:35:16;;;;;;;24.27;18.52;;;7.50;99.90;;;;;;5041839;28;20049;-86
2023/05/02 00:38:04;;;;;;;22.65;17.48;;;7.50;99.90;;;;;;5034979;28;20045;-87
2023/05/02 00:40:52;;;;;;;22.35;16.55;;;7.50;99.90;;;;;;5028281;28;20076;-84
2023/05/02 00:43:39;;;;;;;26.63;16.90;;;7.50;99.90;;;;;;5044048;28;20121;-87
2023/05/02 00:46:27;;;;;;;26.02;17.75;;;7.50;99.90;;;;;;5039201;28;20049;-85
2023/05/02 00:49:14;;;;;;;22.55;17.20;;;7.50;99.90;;;;;;5033404;28;20080;-85
2023/05/02 00:52:01;;;;;;;24.15;18.48;;;7.50;99.90;;;;;;5032190;28;20119;-86
2023/05/02 00:54:51;;;;;;;28.80;18.45;;;7.50;99.90;;;;;;5022430;28;20045;-86
2023/05/02 00:57:38;;;;;;;24.27;16.83;;;7.50;99.90;;;;;;5035925;28;20045;-87
2023/05/02 01:00:36;;;;;;;21.92;16.25;;;7.40;99.90;;;;;;5035470;28;20042;-86
2023/05/02 01:03:32;;;;;;;21.73;17.20;;;7.40;99.90;;;;;;5037573;28;20060;-88
2023/05/02 01:06:47;;;;;;;26.67;16.75;;;7.30;99.90;;;;;;5043329;28;20049;-89
2023/05/02 01:09:47;;;;;;;23.95;16.95;;;7.20;99.90;;;;;;5033386;28;20053;-89
2023/05/02 01:12:58;;;;;;;23.25;17.80;;;7.20;99.90;;;;;;5036859;28;20053;-87
2023/05/02 01:15:47;;;;;;;27.25;18.13;;;7.20;99.90;;;;;;5038785;28;20045;-89
2023/05/02 01:18:39;;;;;;;23.63;18.00;;;7.20;99.90;;;;;;5017271;28;20037;-90
2023/05/02 01:21:27;;;;;;;26.58;18.77;;;7.30;99.90;;;;;;5033517;28;20053;-87
2023/05/02 01:24:56;;;;;;;28.65;19.13;;;7.40;99.90;;;;;;5032028;28;20056;-89
2023/05/02 01:27:49;;;;;;;30.90;20.20;;;7.40;99.90;;;;;;5033566;28;20444;-89
2023/05/02 01:30:39;;;;;;;;;;;7.40;99.90;;;;;;5026503;28;20464;-88
2023/05/02 01:33:29;;;;;;;26.45;20.17;;;7.50;99.90;;;;;;5029743;28;20006;-87
2023/05/02 01:36:16;;;;;;;27.83;20.45;;;7.50;99.90;;;;;;5031250;28;20433;-87
2023/05/02 01:39:08;;;;;;;28.65;20.63;;;7.40;99.90;;;;;;5037169;28;20048;-87
2023/05/02 01:41:57;;;;;;;29.08;20.38;;;7.40;99.90;;;;;;5037269;28;20087;-87
2023/05/02 01:44:46;;;;;;;26.13;19.55;;;7.30;99.90;;;;;;5037317;28;20049;-88
2023/05/02 01:47:35;;;;;;;27.13;20.88;;;7.30;99.90;;;;;;5031263;28;20068;-87
2023/05/02 01:50:26;;;;;;;30.75;21.27;;;7.30;99.90;;;;;;5035524;28;20053;-88
2023/05/02 01:53:14;;;;;;;30.65;22.55;;;7.30;99.90;;;;;;5033981;28;20056;-89
2023/05/02 01:56:05;;;;;;;29.23;21.27;;;7.30;99.90;;;;;;5019830;28;20116;-88
2023/05/02 01:58:54;;;;;;;31.73;22.23;;;7.20;99.90;;;;;;5019774;28;20045;-87
2023/05/02 02:01:43;;;;;;;33.03;21.08;;;7.20;99.90;;;;;;5024314;28;20052;-87
2023/05/02 02:04:33;;;;;;;30.25;22.77;;;7.20;99.90;;;;;;5033446;28;20046;-89
2023/05/02 02:07:21;;;;;;;28.38;21.20;;;7.20;99.90;;;;;;5031825;28;20046;-88
2023/05/02 02:10:08;;;;;;;30.48;22.08;;;7.10;99.90;;;;;;5028083;28;20045;-89
2023/05/02 02:13:08;;;;;;;32.50;22.02;;;7.10;99.90;;;;;;5037335;28;20045;-88
2023/05/02 02:16:00;;;;;;;31.70;21.13;;;7.10;99.90;;;;;;5020300;28;20045;-88
2023/05/02 02:18:56;;;;;;;33.72;21.95;;;7.10;99.90;;;;;;5022688;28;20041;-88
2023/05/02 02:21:45;;;;;;;32.15;22.80;;;7.10;99.90;;;;;;5034892;28;20128;-87
2023/05/02 02:24:36;;;;;;;30.83;22.10;;;7.20;99.90;;;;;;5033223;28;20056;-86
2023/05/02 02:27:31;;;;;;;32.72;21.67;;;7.20;99.90;;;;;;5023279;28;20068;-86
2023/05/02 02:30:18;;;;;;;28.33;21.50;;;7.10;99.90;;;;;;5013315;28;20115;-88
2023/05/02 02:33:06;;;;;;;31.10;23.50;;;7.10;99.90;;;;;;5039577;28;20095;-88
2023/05/02 02:36:21;;;;;;;32.28;22.52;;;7.10;99.90;;;;;;5033052;28;20056;-88
2023/05/02 02:39:21;;;;;;;30.52;22.65;;;7.00;99.90;;;;;;5025352;28;20060;-88
2023/05/02 02:42:17;;;;;;;34.85;23.15;;;6.90;99.90;;;;;;5036844;28;20411;-89
2023/05/02 02:45:22;;;;;;;32.55;22.45;;;6.90;99.90;;;;;;5032004;28;20052;-88
2023/05/02 02:48:21;;;;;;;30.00;21.75;;;6.80;99.90;;;;;;5043194;28;20044;-87
2023/05/02 02:51:22;;;;;;;32.47;22.55;;;6.80;99.90;;;;;;5031255;28;20126;-90
2023/05/02 02:54:33;;;;;;;32.35;23.50;;;6.80;99.90;;;;;;5028958;28;20052;-88
2023/05/02 02:57:48;;;;;;;32.42;22.17;;;6.70;99.90;;;;;;5031149;28;20119;-88
2023/05/02 03:00:36;;;;;;;32.95;22.30;;;6.60;99.90;;;;;;5031047;28;20385;-89
2023/05/02 03:03:27;;;;;;;30.90;21.67;;;6.50;99.90;;;;;;5026145;28;20174;-89
2023/05/02 03:06:20;;;;;;;34.42;22.13;;;6.30;99.90;;;;;;5029474;28;20038;-89
2023/05/02 03:09:13;;;;;;;;;;;6.30;99.90;;;;;;5032295;28;20124;-88
2023/05/02 03:12:00;;;;;;;29.27;20.48;;;6.20;99.90;;;;;;5042048;28;20022;-90
2023/05/02 03:14:48;;;;;;;34.45;23.35;;;6.20;99.90;;;;;;5030844;28;20046;-84
2023/05/02 03:17:35;;;;;;;34.13;22.60;;;6.20;99.90;;;;;;5040744;28;20069;-88
2023/05/02 03:20:24;;;;;;;33.00;22.15;;;6.20;99.90;;;;;;5045757;28;20367;-89
2023/05/02 03:23:11;;;;;;;34.20;22.45;;;6.20;99.90;;;;;;5033202;28;20423;-88
2023/05/02 03:26:02;;;;;;;34.08;24.27;;;6.30;99.90;;;;;;5038155;28;20073;-87
2023/05/02 03:28:51;;;;;;;41.45;25.55;;;6.40;99.90;;;;;;5032668;28;20168;-89
2023/05/02 03:31:40;;;;;;;43.90;27.45;;;6.70;99.90;;;;;;5032908;28;20045;-87
2023/05/02 03:34:28;;;;;;;39.15;28.27;;;6.80;99.90;;;;;;5033097;28;20050;-88
2023/05/02 03:37:15;;;;;;;49.08;29.50;;;6.90;99.90;;;;;;5023167;28;20041;-89
2023/05/02 03:40:02;;;;;;;41.97;29.25;;;6.90;99.90;;;;;;5033570;28;20056;-88
2023/05/02 03:42:50;;;;;;;43.08;29.58;;;6.80;99.90;;;;;;5025022;28;20042;-88
2023/05/02 03:45:39;;;;;;;45.92;28.77;;;6.80;99.90;;;;;;5034743;28;20146;-88
2023/05/02 03:48:26;;;;;;;46.58;29.67;;;6.80;99.90;;;;;;5030627;28;20104;-91
2023/05/02 03:51:14;;;;;;;43.95;29.88;;;6.90;99.90;;;;;;5017126;28;20045;-88
2023/05/02 03:54:01;;;;;;;49.40;29.63;;;6.90;99.90;;;;;;5034856;28;20041;-89
2023/05/02 03:56:48;;;;;;;46.05;31.40;;;7.00;99.90;;;;;;5034803;28;20132;-87
2023/05/02 03:59:36;;;;;;;45.53;30.42;;;7.00;99.90;;;;;;5031864;28;20045;-88
2023/05/02 04:02:25;;;;;;;50.67;31.70;;;7.10;99.90;;;;;;5040661;28;20090;-88
2023/05/02 04:05:16;;;;;;;50.67;30.73;;;7.10;99.90;;;;;;5026884;28;20045;-88
2023/05/02 04:08:03;;;;;;;54.72;31.10;;;7.20;99.90;;;;;;5023667;28;20049;-89
2023/05/02 04:10:51;;;;;;;51.42;32.65;;;7.20;99.90;;;;;;5035743;28;20054;-87
2023/05/02 04:13:39;;;;;;;52.10;32.88;;;7.20;99.90;;;;;;5025868;28;20104;-88
2023/05/02 04:16:26;;;;;;;55.65;32.30;;;7.20;99.90;;;;;;5042587;28;20053;-90
2023/05/02 04:19:13;;;;;;;56.00;32.78;;;7.30;99.90;;;;;;5034460;28;20037;-86
2023/05/02 04:22:02;;;;;;;46.35;30.00;;;7.40;99.90;;;;;;5048255;28;20092;-86
2023/05/02 04:24:49;;;;;;;59.30;34.78;;;7.40;99.90;;;;;;5022941;28;20056;-88
2023/05/02 04:27:37;;;;;;;52.25;31.75;;;7.40;99.90;;;;;;5029148;28;20123;-90
2023/05/02 04:30:24;;;;;;;58.85;33.58;;;7.40;99.90;;;;;;5023198;28;20102;-85
2023/05/02 04:33:14;;;;;;;54.53;32.55;;;7.40;99.90;;;;;;5048069;28;20049;-88
2023/05/02 04:36:03;;;;;;;51.20;31.77;;;7.50;99.90;;;;;;5020749;28;20049;-87
2023/05/02 04:38:51;;;;;;;46.28;30.80;;;7.50;99.90;;;;;;5014374;28;20051;-88
2023/05/02 04:41:38;;;;;;;56.38;33.80;;;7.50;99.90;;;;;;5040020;28;20079;-88
2023/05/02 04:44:25;;;;;;;57.05;33.00;;;7.40;99.90;;;;;;5031685;28;20115;-88
2023/05/02 04:47:15;;;;;;;53.72;33.03;;;7.40;99.90;;;;;;5038288;28;20454;-88
2023/05/02 04:50:08;;;;;;;58.10;36.13;;;7.40;99.90;;;;;;5021104;28;20452;-87
2023/05/02 04:52:55;;;;;;;59.22;36.88;;;7.40;99.90;;;;;;5036666;28;20050;-90
2023/05/02 04:55:42;;;;;;;58.88;36.47;;;7.40;99.90;;;;;;5023877;28;20037;-90
2023/05/02 04:58:31;;;;;;;57.08;35.30;;;7.40;99.90;;;;;;5030473;28;20188;-86
2023/05/02 05:01:19;;;;;;;58.92;36.58;;;7.40;99.90;;;;;;5029731;28;20049;-88
2023/05/02 05:04:06;;;;;;;68.03;38.80;;;7.50;99.90;;;;;;5035955;28;20123;-89
2023/05/02 05:06:54;;;;;;;60.60;37.25;;;7.60;99.90;;;;;;5035141;28;20045;-88
2023/05/02 05:09:41;;;;;;;61.00;38.60;;;7.60;99.90;;;;;;5024395;28;20053;-89
2023/05/02 05:12:28;;;;;;;60.65;39.30;;;7.70;99.90;;;;;;5021609;28;20052;-87
2023/05/02 05:15:24;;;;;;;61.50;40.13;;;7.80;99.90;;;;;;5033789;28;20052;-87
2023/05/02 05:18:11;;;;;;;62.08;39.40;;;8.00;99.90;;;;;;5033328;28;20064;-89
2023/05/02 05:20:58;;;;;;;56.85;36.50;;;8.00;99.90;;;;;;5023730;28;20463;-90
2023/05/02 05:23:48;;;;;;;56.33;34.83;;;8.00;99.90;;;;;;5030076;28;20060;-88
2023/05/02 05:26:37;;;;;;;62.40;35.55;;;8.10;99.90;;;;;;5030027;28;20053;-89
2023/05/02 05:29:27;;;;;;;54.53;36.05;;;8.10;99.90;;;;;;5039541;28;20387;-86
2023/05/02 05:32:14;;;;;;;49.17;33.45;;;8.10;99.90;;;;;;5044468;28;20103;-85
2023/05/02 05:35:03;;;;;;;47.30;32.20;;;8.10;99.90;;;;;;5035949;28;20065;-89
2023/05/02 05:37:50;;;;;;;46.97;31.25;;;8.20;99.90;;;;;;5036237;28;20511;-90
2023/05/02 05:40:37;;;;;;;40.75;29.02;;;8.30;99.90;;;;;;5010225;28;20049;-90
2023/05/02 05:43:27;;;;;;;37.42;26.95;;;8.40;99.90;;;;;;5020340;28;20085;-89
2023/05/02 05:46:14;;;;;;;43.83;27.15;;;8.40;99.90;;;;;;5032730;28;20057;-89
2023/05/02 05:49:01;;;;;;;35.72;25.27;;;8.50;99.90;;;;;;5033533;28;20053;-87
2023/05/02 05:51:51;;;;;;;38.45;26.00;;;8.60;99.90;;;;;;5030126;28;20488;-88
2023/05/02 05:54:38;;;;;;;34.28;25.05;;;8.70;99.90;;;;;;5038112;28;20508;-87
2023/05/02 05:57:25;;;;;;;32.35;23.92;;;8.70;99.90;;;;;;5022837;28;20203;-89
2023/05/02 06:00:13;;;;;;;32.95;23.58;;;8.70;99.90;;;;;;5030591;28;20045;-88
2023/05/02 06:03:01;;;;;;;31.83;22.95;;;8.70;99.90;;;;;;5027035;28;20053;-89
2023/05/02 06:05:50;;;;;;;38.65;27.20;;;8.70;99.90;;;;;;5024313;28;20069;-88
2023/05/02 06:08:38;;;;;;;30.98;22.75;;;8.70;99.90;;;;;;5037348;28;20050;-88
2023/05/02 06:11:25;;;;;;;37.30;23.75;;;8.70;99.90;;;;;;5019110;28;20060;-88
2023/05/02 06:14:12;;;;;;;31.55;24.05;;;8.80;99.90;;;;;;5031566;28;20095;-89
2023/05/02 06:17:00;;;;;;;30.45;24.00;;;8.90;99.90;;;;;;5033000;28;20634;-87
2023/05/02 06:19:47;;;;;;;30.65;22.63;;;9.00;99.90;;;;;;5035800;28;20057;-87
2023/05/02 06:22:35;;;;;;;29.83;20.90;;;9.20;99.90;;;;;;5032417;28;20127;-86
2023/05/02 06:25:22;;;;;;;25.95;19.90;;;9.30;99.90;;;;;;5032747;28;20050;-87
2023/05/02 06:28:09;;;;;;;23.90;18.52;;;9.20;99.90;;;;;;5030490;28;20049;-89
2023/05/02 06:31:15;;;;;;;24.30;17.00;;;9.30;99.90;;;;;;5015654;28;20041;-89
2023/05/02 06:34:03;;;;;;;28.85;16.75;;;9.30;99.90;;;;;;5047258;28;20478;-89
2023/05/02 06:36:56;;;;;;;21.05;16.50;;;9.30;99.90;;;;;;5032629;28;20056;-87
2023/05/02 06:39:43;;;;;;;22.90;17.33;;;9.40;99.90;;;;;;5028425;28;20476;-89
2023/05/02 06:42:31;;;;;;;24.08;19.63;;;9.40;99.90;;;;;;5013305;28;20049;-87
2023/05/02 06:45:18;;;;;;;25.15;19.17;;;9.50;99.90;;;;;;5033441;28;20136;-87
2023/05/02 06:48:09;;;;;;;26.33;19.70;;;9.50;99.90;;;;;;5032192;28;20464;-88
2023/05/02 06:50:57;;;;;;;26.98;21.23;;;9.60;99.90;;;;;;5018074;28;20045;-87
2023/05/02 06:53:46;;;;;;;26.13;20.83;;;9.60;99.90;;;;;;5030061;28;20479;-88
2023/05/02 06:56:37;;;;;;;29.08;21.17;;;9.70;99.90;;;;;;5026735;28;20057;-88
2023/05/02 06:59:26;;;;;;;25.67;20.13;;;9.70;99.90;;;;;;5019755;28;20049;-88
2023/05/02 07:02:14;;;;;;;31.15;23.45;;;9.80;99.90;;;;;;5030101;28;20056;-88
2023/05/02 07:05:01;;;;;;;30.50;22.17;;;9.80;99.90;;;;;;5025845;28;20057;-88
2023/05/02 07:07:49;;;;;;;30.02;22.60;;;9.90;99.90;;;;;;5037067;28;20348;-87
2023/05/02 07:10:36;;;;;;;28.95;21.80;;;10.00;99.90;;;;;;5032744;28;20041;-85
2023/05/02 07:13:25;;;;;;;31.08;24.90;;;10.20;99.90;;;;;;5016390;28;20124;-87
2023/05/02 07:16:13;;;;;;;29.83;22.38;;;10.30;99.90;;;;;;5031298;28;20048;-87
2023/05/02 07:19:05;;;;;;;28.75;21.50;;;10.40;99.90;;;;;;5014706;28;20354;-88
2023/05/02 07:21:57;;;;;;;29.13;22.42;;;10.50;99.90;;;;;;5028044;28;20038;-88
2023/05/02 07:24:45;;;;;;;38.90;24.92;;;10.60;99.90;;;;;;5033041;28;20440;-84
2023/05/02 07:27:32;;;;;;;39.88;24.15;;;10.60;99.90;;;;;;5033675;28;20055;-87
2023/05/02 07:30:19;;;;;;;31.23;23.52;;;10.80;99.90;;;;;;5032139;28;20053;-88
2023/05/02 07:33:07;;;;;;;30.83;22.85;;;10.90;99.90;;;;;;5028213;28;20054;-88
2023/05/02 07:35:55;;;;;;;30.25;22.73;;;10.80;99.90;;;;;;5013241;28;20068;-86
2023/05/02 07:38:42;;;;;;;31.65;23.50;;;10.80;99.90;;;;;;5028699;28;20053;-84
2023/05/02 07:41:30;;;;;;;26.40;21.08;;;10.80;10.30;;;;;;5033313;28;20057;-87
2023/05/02 07:44:19;;;;;;;25.55;21.90;;;11.00;25.80;;;;;;5018570;28;20038;-88
2023/05/02 07:47:07;;;;;;;31.92;23.98;;;11.20;99.90;;;;;;5031172;28;20037;-86
2023/05/02 07:49:55;;;;;;;38.22;22.77;;;11.40;1.00;;;;;;5029488;28;20453;-86
2023/05/02 07:52:42;;;;;;;30.13;23.52;;;11.40;99.90;;;;;;5029949;28;20403;-85
2023/05/02 07:55:32;;;;;;;31.55;24.30;;;11.60;1.00;;;;;;5031718;28;20334;-86
2023/05/02 07:58:19;;;;;;;30.15;22.83;;;11.80;99.90;;;;;;5010516;28;20092;-86
2023/05/02 08:01:07;;;;;;;28.95;23.50;;;11.90;1.00;;;;;;5035337;28;20393;-86
2023/05/02 08:03:55;;;;;;;31.08;24.98;;;12.30;1.00;;;;;;5040085;28;20045;-88
2023/05/02 08:06:45;;;;;;;34.63;24.40;;;12.60;99.90;;;;;;5029359;28;20045;-86
2023/05/02 08:09:32;;;;;;;31.88;24.75;;;12.80;99.90;;;;;;5036436;28;20128;-88
2023/05/02 08:12:22;;;;;;;35.05;26.27;;;12.90;1.00;;;;;;5035313;28;20066;-88
2023/05/02 08:15:13;;;;;;;30.10;24.98;;;12.80;99.90;;;;;;5030925;28;20095;-87
2023/05/02 08:18:01;;;;;;;33.88;25.60;;;13.00;99.90;;;;;;5032496;28;20738;-87
2023/05/02 08:20:49;;;;;;;34.13;27.23;;;13.20;99.90;;;;;;5024956;28;20049;-87
2023/05/02 08:23:40;;;;;;;38.00;29.77;;;13.30;99.90;;;;;;5031631;28;20041;-86
2023/05/02 08:26:27;;;;;;;41.75;31.65;;;13.40;91.70;;;;;;5032739;28;20386;-88
2023/05/02 08:29:15;;;;;;;40.72;32.63;;;13.30;10.80;;;;;;5030975;28;20064;-88
2023/05/02 08:32:02;;;;;;;45.00;31.58;;;13.40;46.70;;;;;;5032139;28;20048;-89
2023/05/02 08:34:53;;;;;;;41.40;32.45;;;13.60;69.90;;;;;;5046707;28;20056;-88
2023/05/02 08:37:40;;;;;;;46.60;33.25;;;13.80;1.00;;;;;;5043172;28;20060;-87
2023/05/02 08:40:35;;;;;;;44.92;33.15;;;14.00;1.00;;;;;;5027399;28;20419;-88
2023/05/02 08:43:30;;;;;;;38.28;31.75;;;14.30;99.90;;;;;;5024594;28;20046;-88
2023/05/02 08:46:23;;;;;;;36.10;29.73;;;14.60;99.90;;;;;;5032602;28;20057;-88
2023/05/02 08:49:12;;;;;;;37.78;31.27;;;15.00;99.90;;;;;;5016557;28;20045;-87
2023/05/02 08:52:01;;;;;;;37.25;29.70;;;15.60;99.90;;;;;;5031726;28;20045;-89
2023/05/02 08:54:50;;;;;;;40.05;29.88;;;15.70;99.90;;;;;;5032544;28;20346;-93
2023/05/02 08:57:38;;;;;;;38.20;30.35;;;15.70;99.90;;;;;;5033152;28;20057;-87
2023/05/02 09:00:26;;;;;;;41.13;31.60;;;15.30;99.90;;;;;;5027758;28;20098;-87
2023/05/02 09:03:29;;;;;;;43.05;32.10;;;15.30;99.90;;;;;;5034502;28;20348;-90
2023/05/02 09:06:19;;;;;;;28.65;23.40;;;15.50;94.80;;;;;;5034832;28;20133;-87
2023/05/02 09:09:07;;;;;;;36.78;28.48;;;15.70;23.40;;;;;;5020888;28;20061;-87
2023/05/02 09:11:54;;;;;;;35.88;29.10;;;15.90;1.00;;;;;;5028162;28;20053;-89
2023/05/02 09:14:44;;;;;;;35.55;27.50;;;15.70;1.00;;;;;;5039236;28;20060;-90
2023/05/02 09:17:42;;;;;;;32.38;26.25;;;15.90;1.00;;;;;;5029606;28;20480;-88
2023/05/02 09:20:41;;;;;;;32.78;26.38;;;15.80;1.00;;;;;;5033045;28;20376;-90
2023/05/02 09:23:43;;;;;;;32.67;24.92;;;15.90;1.00;;;;;;5019906;28;20061;-88
2023/05/02 09:26:33;;;;;;;29.25;24.75;;;16.30;1.00;;;;;;5032610;28;20046;-89
2023/05/02 09:29:21;;;;;;;28.05;23.75;;;16.70;1.00;;;;;;5026837;28;20741;-87
2023/05/02 09:32:08;;;;;;;30.63;22.48;;;17.10;1.00;;;;;;5035075;28;20052;-88
2023/05/02 09:35:22;;;;;;;26.65;22.00;;;17.10;1.00;;;;;;5017929;28;20045;-89
2023/05/02 09:38:19;;;;;;;25.35;20.80;;;17.40;1.00;;;;;;5030487;28;20489;-88
2023/05/02 09:41:07;;;;;;;25.83;21.88;;;18.10;1.00;;;;;;5015465;28;20071;-86
2023/05/02 09:43:58;;;;;;;29.10;23.40;;;18.80;99.90;;;;;;5034350;28;20128;-87
2023/05/02 09:46:48;;;;;;;28.10;23.20;;;19.40;99.90;;;;;;5037085;28;20049;-89
2023/05/02 09:49:43;;;;;;;32.75;23.73;;;19.00;99.90;;;;;;5030769;28;20045;-90
2023/05/02 09:52:31;;;;;;;31.60;25.17;;;18.50;99.90;;;;;;5031697;28;20196;-86
2023/05/02 09:55:24;;;;;;;30.27;24.45;;;17.50;99.90;;;;;;5026054;28;20052;-88
2023/05/02 09:58:22;;;;;;;34.80;25.27;;;17.20;99.90;;;;;;5039708;28;20052;-88
2023/05/02 10:01:17;;;;;;;28.60;24.35;;;17.20;99.90;;;;;;5036948;28;20037;-86
2023/05/02 10:04:04;;;;;;;27.52;22.27;;;17.50;99.90;;;;;;5043632;28;20099;-88
2023/05/02 10:06:53;;;;;;;31.38;22.92;;;18.10;99.90;;;;;;5037513;28;20133;-86
2023/05/02 10:09:44;;;;;;;25.20;22.48;;;18.50;99.90;;;;;;5027752;28;20041;-87
2023/05/02 10:12:32;;;;;;;26.83;22.50;;;18.30;99.90;;;;;;5031810;28;20052;-88
2023/05/02 10:15:23;;;;;;;26.02;22.10;;;17.70;99.90;;;;;;5027873;28;20161;-88
2023/05/02 10:18:20;;;;;;;26.88;22.20;;;17.20;99.90;;;;;;5023772;28;20115;-85
2023/05/02 10:21:12;;;;;;;22.45;18.73;;;17.80;99.90;;;;;;5031362;28;20449;-87
2023/05/02 10:24:02;;;;;;;22.17;17.73;;;18.80;99.90;;;;;;5032156;28;20477;-88
2023/05/02 10:26:53;;;;;;;23.15;19.45;;;18.80;99.90;;;;;;5031806;28;20041;-89
2023/05/02 10:29:41;;;;;;;22.45;19.67;;;18.10;99.90;;;;;;5028478;28;20117;-89
2023/05/02 10:32:34;;;;;;;26.13;19.10;;;17.50;99.90;;;;;;5022639;28;20050;-87
2023/05/02 10:35:24;;;;;;;24.00;19.60;;;17.50;99.90;;;;;;5034097;28;20141;-90
2023/05/02 10:38:14;;;;;;;23.17;17.17;;;18.60;99.90;;;;;;5015472;28;20113;-89
2023/05/02 10:41:11;;;;;;;21.00;17.83;;;19.80;99.90;;;;;;5036387;28;20038;-88
2023/05/02 10:44:06;;;;;;;19.23;16.70;;;20.70;99.90;;;;;;5042398;28;20049;-88
2023/05/02 10:46:59;;;;;;;18.13;15.77;;;21.50;99.90;;;;;;5048611;28;20053;-88
2023/05/02 10:50:00;;;;;;;16.85;13.88;;;23.30;99.90;;;;;;5057204;28;20056;-83
2023/05/02 10:52:50;;;;;;;17.08;14.48;;;22.10;99.90;;;;;;5053661;28;20469;-89
2023/05/02 10:55:43;;;;;;;15.85;11.57;;;21.70;99.90;;;;;;5038651;28;20068;-87
2023/05/02 10:58:31;;;;;;;14.13;12.68;;;22.90;99.90;;;;;;5052335;28;20046;-91
2023/05/02 11:01:27;;;;;;;13.63;11.68;;;23.40;99.90;;;;;;5041929;28;20073;-90
2023/05/02 11:04:15;;;;;;;17.17;13.05;;;23.90;99.80;;;;;;5023392;28;20045;-88
2023/05/02 11:07:06;;;;;;;14.20;11.98;;;25.00;67.60;;;;;;5033020;28;20064;-89
2023/05/02 11:10:16;;;;;;;13.00;11.30;;;25.20;60.60;;;;;;5025618;28;20053;-88
2023/05/02 11:13:06;;;;;;;15.02;10.88;;;25.20;43.80;;;;;;5028089;28;20330;-86
2023/05/02 11:15:54;;;;;;;17.00;12.60;;;23.60;37.00;;;;;;5036946;28;20053;-89
2023/05/02 11:19:01;;;;;;;13.10;11.07;;;23.30;34.40;;;;;;5017942;28;20053;-90
2023/05/02 11:21:53;;;;;;;13.85;11.38;;;24.10;28.60;;;;;;5031289;28;20042;-89
2023/05/02 11:24:43;;;;;;;13.35;11.80;;;24.10;22.00;;;;;;5032047;28;20051;-91
2023/05/02 11:27:32;;;;;;;16.92;11.20;;;23.70;26.10;;;;;;5034944;28;20460;-88
2023/05/02 11:30:39;;;;;;;13.13;11.70;;;23.90;22.80;;;;;;5028199;28;20131;-90
2023/05/02 11:33:32;;;;;;;13.48;11.38;;;23.10;17.60;;;;;;5033731;28;20053;-88
2023/05/02 11:36:31;;;;;;;14.25;12.40;;;24.00;5.30;;;;;;5032960;28;20448;-88
2023/05/02 11:39:20;;;;;;;13.30;11.88;;;24.10;7.50;;;;;;5032727;28;20364;-90
2023/05/02 11:42:10;;;;;;;15.95;12.27;;;23.90;8.70;;;;;;5016258;28;20171;-90
2023/05/02 11:44:59;;;;;;;14.52;12.02;;;23.80;2.60;;;;;;5033235;28;21338;-90
2023/05/02 11:47:49;;;;;;;13.35;11.35;;;23.10;1.00;;;;;;5030672;28;20746;-88
2023/05/02 11:51:08;;;;;;;13.95;11.73;;;22.00;1.00;;;;;;5022608;28;20049;-89
2023/05/02 11:54:00;;;;;;;14.25;11.73;;;22.10;1.00;;;;;;5023982;28;20053;-88
2023/05/02 11:56:53;;;;;;;14.38;10.30;;;23.80;1.00;;;;;;5028423;28;20042;-90
2023/05/02 11:59:53;;;;;;;16.25;12.32;;;25.30;1.00;;;;;;5039760;28;20052;-89
2023/05/02 12:02:41;;;;;;;14.48;12.98;;;25.50;1.00;;;;;;5032993;28;20495;-89
2023/05/02 12:05:32;;;;;;;13.98;12.00;;;26.40;1.00;;;;;;5037734;28;20041;-90
2023/05/02 12:08:25;;;;;;;16.70;12.57;;;27.50;1.00;;;;;;5029054;28;20128;-91
2023/05/02 12:11:16;;;;;;;13.40;12.02;;;26.60;1.00;;;;;;5017607;28;20139;-90
2023/05/02 12:14:05;;;;;;;14.23;12.13;;;27.50;1.00;;;;;;5014787;28;20182;-90
2023/05/02 12:16:56;;;;;;;15.45;13.05;;;26.90;1.00;;;;;;5017627;28;20060;-90
2023/05/02 12:19:43;;;;;;;16.48;12.32;;;26.20;1.00;;;;;;5018575;28;20103;-92
2023/05/02 12:22:31;;;;;;;11.25;10.05;;;26.70;1.00;;;;;;5032861;28;20052;-90
2023/05/02 12:25:18;;;;;;;10.05;9.05;;;26.10;1.00;;;;;;5018451;28;20059;-91
2023/05/02 12:28:09;;;;;;;13.38;11.20;;;25.60;1.00;;;;;;5031716;28;20457;-88
2023/05/02 12:30:56;;;;;;;17.83;13.15;;;24.10;1.00;;;;;;5030679;28;20380;-90
2023/05/02 12:33:49;;;;;;;14.48;12.98;;;23.80;1.00;;;;;;5021928;28;20064;-90
2023/05/02 12:36:45;;;;;;;14.05;12.43;;;25.20;1.00;;;;;;5011588;28;20048;-89
2023/05/02 12:39:37;;;;;;;16.95;14.90;;;25.00;1.00;;;;;;5028514;28;20056;-91
2023/05/02 12:42:33;;;;;;;19.48;17.33;;;23.20;1.00;;;;;;5025540;28;20057;-89
2023/05/02 12:45:20;;;;;;;19.27;16.42;;;21.40;1.00;;;;;;5029563;28;20392;-90
2023/05/02 12:48:25;;;;;;;19.02;17.02;;;20.30;1.00;;;;;;5039042;28;20057;-89
2023/05/02 12:51:22;;;;;;;21.05;17.35;;;19.50;1.00;;;;;;5052159;28;20045;-89
2023/05/02 12:54:21;;;;;;;24.75;20.08;;;19.00;1.00;;;;;;5028605;28;20048;-90
2023/05/02 12:57:11;;;;;;;29.08;22.25;;;18.70;1.00;;;;;;5032333;28;20068;-89
2023/05/02 13:00:01;;;;;;;28.92;22.88;;;18.30;1.00;;;;;;5013302;28;20052;-91
2023/05/02 13:02:49;;;;;;;26.10;20.60;;;18.70;1.00;;;;;;5007227;28;20380;-90
2023/05/02 13:05:37;;;;;;;29.38;21.90;;;20.10;1.00;;;;;;5036400;28;20045;-88
2023/05/02 13:08:24;;;;;;;25.42;17.67;;;21.70;1.00;;;;;;5015740;28;20056;-86
2023/05/02 13:11:13;;;;;;;26.00;20.02;;;23.40;1.00;;;;;;5034468;28;20124;-91
2023/05/02 13:14:02;;;;;;;23.63;20.80;;;24.20;1.00;;;;;;5034745;28;20060;-89
2023/05/02 13:16:52;;;;;;;28.05;19.83;;;24.60;1.00;;;;;;5032213;28;20065;-88
2023/05/02 13:19:39;;;;;;;21.70;17.73;;;25.20;1.00;;;;;;5031441;28;20059;-90
2023/05/02 13:22:40;;;;;;;22.23;17.67;;;24.90;1.00;;;;;;5042852;28;20053;-89
2023/05/02 13:25:29;;;;;;;19.10;15.20;;;25.60;1.00;;;;;;5037835;28;20083;-91
2023/05/02 13:28:17;;;;;;;20.00;15.20;;;25.80;1.00;;;;;;5033059;28;20060;-88
2023/05/02 13:31:04;;;;;;;19.05;15.57;;;26.70;1.00;;;;;;5034861;28;20139;-87
2023/05/02 13:33:54;;;;;;;18.20;16.13;;;26.70;1.00;;;;;;5046583;28;20345;-84
2023/05/02 13:36:44;;;;;;;19.05;16.20;;;26.40;1.00;;;;;;5044918;28;20045;-90
2023/05/02 13:39:34;;;;;;;18.33;15.02;;;26.70;1.00;;;;;;5031935;28;20054;-90
2023/05/02 13:42:22;;;;;;;19.00;16.50;;;26.20;1.00;;;;;;5034472;28;20052;-89
2023/05/02 13:45:10;;;;;;;17.77;14.40;;;25.20;1.00;;;;;;5036736;28;20131;-88
2023/05/02 13:47:57;;;;;;;19.63;14.25;;;25.30;1.00;;;;;;5025590;28;20444;-87
2023/05/02 13:50:44;;;;;;;17.17;15.20;;;25.80;1.00;;;;;;5027425;28;20049;-86
2023/05/02 13:53:32;;;;;;;17.02;15.15;;;26.20;1.00;;;;;;5030951;28;20105;-89
2023/05/02 13:56:19;;;;;;;18.83;14.93;;;25.30;1.00;;;;;;5040435;28;20049;-88
2023/05/02 13:59:07;;;;;;;16.00;14.27;;;24.90;1.00;;;;;;5042579;28;20049;-89
2023/05/02 14:02:00;;;;;;;13.90;12.38;;;24.70;1.00;;;;;;5040254;28;20511;-89
2023/05/02 14:04:47;;;;;;;18.17;12.55;;;25.50;1.00;;;;;;5045118;28;20064;-89
2023/05/02 14:07:34;;;;;;;12.95;11.55;;;26.60;1.00;;;;;;5043288;28;20053;-89
2023/05/02 14:10:24;;;;;;;17.48;12.82;;;26.40;1.00;;;;;;5037726;28;20476;-90
2023/05/02 14:13:12;;;;;;;17.52;14.75;;;26.30;1.00;;;;;;5031648;28;20041;-89
2023/05/02 14:15:59;;;;;;;19.42;14.35;;;26.00;1.00;;;;;;5038514;28;20125;-88
2023/05/02 14:18:48;;;;;;;20.15;15.63;;;24.60;1.00;;;;;;5030196;28;20041;-89
2023/05/02 14:21:38;;;;;;;20.67;14.32;;;23.60;1.00;;;;;;5034966;28;20188;-89
2023/05/02 14:24:25;;;;;;;19.35;14.80;;;22.60;1.00;;;;;;5043876;28;20068;-89
2023/05/02 14:27:16;;;;;;;22.48;15.45;;;21.70;1.00;;;;;;5029708;28;20097;-89
2023/05/02 14:30:07;;;;;;;19.88;14.95;;;20.90;1.00;;;;;;5037530;28;20147;-89
2023/05/02 14:32:55;;;;;;;19.95;15.57;;;20.00;1.00;;;;;;5046632;28;20467;-88
2023/05/02 14:35:43;;;;;;;20.33;13.73;;;19.20;1.00;;;;;;5039218;28;20049;-90